Aérodrome :
LOGIN :

S'inscrire | Disclaimer

   EN    FR    IT 

 










Légende :    VFR   VFR Marginal   IFR   IFR Intensif   IFR Très Intensif
Visi : 
Plafond : 
>= 8 km
>= 3000ft
5 à 8 km
1000 à 3000 ft
1500m à 5 km
500 à 1000 ft
800 à 1500m
200 à 500 ft
< 800m
< 200 ft
Symboles :   Orages  Brouillard  Fortes neiges  Fortes précipitations  Vent > 20 kt
SIGMETs :   Divers  Orages  Givrage  Turbulence  Onde Orograph.  Cendres Volcan.







- Altitude de l'aérodrome : 84 ft
- Voir les cartes d'approche


LFBC - Cazaux

DERNIER METAR :
  • 251130Z AUTO 30009KT 260V340 9999 SCT022 21/15 Q1021 TEMPO SHRA BKN010 BKN015TCU

METARs EXPIRÉS :
  • 251100Z AUTO 31012KT 9999 SCT019 BKN024 20/14 Q1020 TEMPO SHRA BKN010 BKN015TCU
  • 251030Z AUTO 32011KT 290V350 9999 BKN019 BKN028 20/16 Q1020 TEMPO SHRA BKN010 BKN015TCU
  • 251000Z AUTO 30011KT 270V350 9999 BKN017/// BKN024/// ///TCU 20/16 Q1020 TEMPO 3000 TSRA BKN012CB
  • 250930Z AUTO 30010KT 270V330 9999 BKN016/// BKN024/// ///TCU 20/17 Q1020 TEMPO 3000 TSRA BKN012CB
  • 250900Z AUTO 28010KT 9999 FEW015/// SCT025/// BKN030/// ///TCU 20/16 Q1020 TEMPO 3000 TSRA BKN012CB

TAF TAF LFBC
Valide du 25 à 09h jusqu'au 26 à 09h UTC


250800Z 2509/2609 28010KT 9999 FEW015 SCT025
TEMPO 2509/2513 5000 SHRA BKN010 BKN015TCU
PROB40
TEMPO 2509/2511 VRB15KT 3000 TSRA BKN012CB
BECMG 2516/2517 BKN015
BECMG 2522/2523 VRB02KT
TEMPO 2605/2609 BKN008
Pas de NOTAMs connus pour ce terrain.
2 SIGMETs publiés pour la FIR Bordeaux (LFBB) :
 
Orages noyés dans la masse
LFBB SIGMET 7 VALID 251130/251300 LFPW
LFBB BORDEAUX FIR/UIR EMBD TS OBS WI N4245 E00230 - N4215 E00230 - N4230 E00130 - N4300 E00145 TOP FL340 MOV E 15KT NC=
Orages noyés dans la masse
LFBB SIGMET 6 VALID 251030/251130 LFPW
LFBB BORDEAUX FIR/UIR EMBD TS OBS WI N4230 E00130 - N4230 E00045 - N4345 E00145 - N4330 E00230 TOP FL340 MOV NE 20KT NC=



MET'MAP, la Météo Aéronautique d'un coup d'oeil ! - Copyright ORBIFLY Décembre 2007 - Disclaimer

ORBIFLY MET'MAP TEAM :

Programmation & Développement : Alexandra Zaïnal
Conception & Développement : Baudouin d'Aumeries
Co-Programmation & Développement : Marc-Olivier Méhu
Soutien technique & logistique : Manuel Goepfert

Contact : metmap@orbifly.com




SOURCES & CREDITS :

   NOAA